createdAt,value
2022-08-07T00:00:26.633Z,14.50
2022-08-07T00:02:56.087Z,14.50
2022-08-07T00:05:26.481Z,14.50
2022-08-07T00:07:58.271Z,14.30
2022-08-07T00:10:30.461Z,14.20
2022-08-07T00:13:03.211Z,14.20
2022-08-07T00:15:51.061Z,14.00
2022-08-07T00:18:24.603Z,13.70
2022-08-07T00:20:55.256Z,13.60
2022-08-07T00:23:28.285Z,13.40
2022-08-07T00:26:00.168Z,13.40
2022-08-07T00:28:31.630Z,13.40
2022-08-07T00:31:06.086Z,13.30
2022-08-07T00:33:35.574Z,13.40
2022-08-07T00:36:06.607Z,13.40
2022-08-07T00:38:36.697Z,13.60
2022-08-07T00:41:10.122Z,13.60
2022-08-07T00:44:01.374Z,13.60
2022-08-07T00:46:32.912Z,13.60
2022-08-07T00:49:03.262Z,13.60
2022-08-07T00:51:57.561Z,13.50
2022-08-07T00:54:22.381Z,13.50
2022-08-07T00:56:51.661Z,13.40
2022-08-07T00:59:35.950Z,13.40
2022-08-07T01:02:06.315Z,13.20
2022-08-07T01:04:43.315Z,13.10
2022-08-07T01:07:15.372Z,13.10
2022-08-07T01:10:06.991Z,13.10
2022-08-07T01:12:32.809Z,13.20
2022-08-07T01:15:04.716Z,13.10
2022-08-07T01:17:40.605Z,13.10
2022-08-07T01:20:17.158Z,13.10
2022-08-07T01:23:00.522Z,13.10
2022-08-07T01:25:56.122Z,13.00
2022-08-07T01:28:26.154Z,13.10
2022-08-07T01:30:58.134Z,13.10
2022-08-07T01:33:55.570Z,13.10
2022-08-07T01:36:33.541Z,13.10
2022-08-07T01:42:57.341Z,12.90
2022-08-07T01:45:40.164Z,12.70
2022-08-07T01:48:29.930Z,12.70
2022-08-07T01:51:24.134Z,12.90
2022-08-07T01:54:12.559Z,13.00
2022-08-07T01:56:55.270Z,13.10
2022-08-07T01:59:30.909Z,13.20
2022-08-07T02:02:06.395Z,13.20
2022-08-07T02:04:52.584Z,13.20
2022-08-07T02:07:44.902Z,13.30
2022-08-07T02:10:26.272Z,13.30
2022-08-07T02:13:00.181Z,13.30
2022-08-07T02:15:37.103Z,13.30
2022-08-07T02:18:07.553Z,13.30
2022-08-07T02:20:37.303Z,13.20
2022-08-07T02:23:10.396Z,13.10
2022-08-07T02:26:31.973Z,13.00
2022-08-07T02:28:34.258Z,13.10
2022-08-07T02:31:28.020Z,13.10
2022-08-07T02:34:11.233Z,13.10
2022-08-07T02:36:47.594Z,13.00
2022-08-07T02:39:43.636Z,13.10
2022-08-07T02:42:10.297Z,13.10
2022-08-07T02:44:48.026Z,12.90
2022-08-07T02:47:45.587Z,12.80
2022-08-07T02:50:18.551Z,12.50
2022-08-07T02:52:53.076Z,12.40
2022-08-07T02:55:28.569Z,12.30
2022-08-07T02:58:14.600Z,12.40
2022-08-07T03:00:47.450Z,12.50
2022-08-07T03:03:22.865Z,12.50
2022-08-07T03:05:55.786Z,12.50
2022-08-07T03:08:26.890Z,12.40
2022-08-07T03:11:00.511Z,12.20
2022-08-07T03:13:39.054Z,12.10
2022-08-07T03:16:19.671Z,12.00
2022-08-07T03:18:56.671Z,12.00
2022-08-07T03:21:25.425Z,12.10
2022-08-07T03:24:19.528Z,12.10
2022-08-07T03:26:58.305Z,12.10
2022-08-07T03:29:36.846Z,12.00
2022-08-07T03:32:13.100Z,11.80
2022-08-07T03:34:47.292Z,11.70
2022-08-07T03:37:45.853Z,11.80
2022-08-07T03:40:23.846Z,11.70
2022-08-07T03:43:02.194Z,11.70
2022-08-07T03:45:34.384Z,11.70
2022-08-07T03:48:13.988Z,11.60
2022-08-07T03:50:52.034Z,11.60
2022-08-07T03:54:00.547Z,11.50
2022-08-07T03:56:18.744Z,11.40
2022-08-07T03:59:09.283Z,11.50
2022-08-07T04:01:45.724Z,11.40
2022-08-07T04:04:19.110Z,11.40
2022-08-07T04:06:53.233Z,11.20
2022-08-07T04:09:24.991Z,11.20
2022-08-07T04:12:25.848Z,11.20
2022-08-07T04:14:56.362Z,11.20
2022-08-07T04:17:25.078Z,11.30
2022-08-07T04:20:15.653Z,11.30
2022-08-07T04:22:53.184Z,11.40
2022-08-07T04:25:24.407Z,11.50
2022-08-07T04:28:00.401Z,11.60
2022-08-07T04:30:35.684Z,11.60
2022-08-07T04:33:19.976Z,11.60
2022-08-07T04:35:54.487Z,11.70
2022-08-07T04:38:28.716Z,11.80
2022-08-07T04:40:58.303Z,11.90
2022-08-07T04:44:14.518Z,12.00
2022-08-07T04:46:34.684Z,12.10
2022-08-07T04:49:17.663Z,12.20
2022-08-07T04:52:00.639Z,12.40
2022-08-07T04:54:36.889Z,12.60
2022-08-07T04:58:13.072Z,12.70
2022-08-07T05:00:14.221Z,12.80
2022-08-07T05:02:55.488Z,13.10
2022-08-07T05:05:53.993Z,13.20
2022-08-07T05:08:59.850Z,13.60
2022-08-07T05:11:26.152Z,14.90
2022-08-07T05:14:56.350Z,16.40
2022-08-07T05:16:58.226Z,17.40
2022-08-07T05:19:44.817Z,18.60
2022-08-07T05:22:26.686Z,19.30
2022-08-07T05:25:00.727Z,19.60
2022-08-07T05:28:16.071Z,19.70
2022-08-07T05:30:30.337Z,20.20
2022-08-07T05:33:04.981Z,20.20
2022-08-07T05:35:41.580Z,20.60
2022-08-07T05:38:12.416Z,19.80
2022-08-07T05:41:11.966Z,19.40
2022-08-07T05:44:08.786Z,18.90
2022-08-07T05:46:35.870Z,18.50
2022-08-07T05:49:11.617Z,17.90
2022-08-07T05:51:46.587Z,17.20
2022-08-07T05:54:31.312Z,16.80
2022-08-07T05:57:10.982Z,16.30
2022-08-07T05:59:57.119Z,15.80
2022-08-07T06:02:31.061Z,16.10
2022-08-07T06:05:06.913Z,16.20
2022-08-07T06:08:13.996Z,16.00
2022-08-07T06:10:26.472Z,16.20
2022-08-07T06:12:56.280Z,16.10
2022-08-07T06:15:39.127Z,16.10
2022-08-07T06:18:14.336Z,16.10
2022-08-07T06:20:50.903Z,16.00
2022-08-07T06:24:38.211Z,16.10
2022-08-07T06:26:27.770Z,16.20
2022-08-07T06:29:01.109Z,16.30
2022-08-07T06:31:47.252Z,16.50
2022-08-07T06:34:24.313Z,16.50
2022-08-07T06:36:58.079Z,16.40
2022-08-07T06:40:16.129Z,16.50
2022-08-07T06:42:34.866Z,16.50
2022-08-07T06:45:18.235Z,16.60
2022-08-07T06:47:58.667Z,16.70
2022-08-07T06:50:36.046Z,16.70
2022-08-07T06:53:49.353Z,16.80
2022-08-07T06:56:01.311Z,16.90
2022-08-07T06:58:33.937Z,17.00
2022-08-07T07:01:11.753Z,17.10
2022-08-07T07:03:49.256Z,17.30
2022-08-07T07:06:23.801Z,17.40
2022-08-07T07:08:52.292Z,17.40
2022-08-07T07:12:09.035Z,17.50
2022-08-07T07:14:10.059Z,17.60
2022-08-07T07:16:50.619Z,17.70
2022-08-07T07:19:55.799Z,17.80
2022-08-07T07:22:33.914Z,17.90
2022-08-07T07:25:14.472Z,18.10
2022-08-07T07:28:02.666Z,18.20
2022-08-07T07:30:38.387Z,18.30
2022-08-07T07:33:12.282Z,18.40
2022-08-07T07:36:04.072Z,18.30
2022-08-07T07:38:34.880Z,18.50
2022-08-07T07:41:09.202Z,18.60
2022-08-07T07:44:14.749Z,18.70
2022-08-07T07:46:37.326Z,18.80
2022-08-07T07:50:35.274Z,18.80
2022-08-07T07:52:12.925Z,18.90
2022-08-07T07:54:44.189Z,19.00
2022-08-07T07:57:21.403Z,19.10
2022-08-07T08:00:11.221Z,19.20
2022-08-07T08:03:01.150Z,19.20
2022-08-07T08:05:51.081Z,19.30
2022-08-07T08:08:34.581Z,19.30
2022-08-07T08:11:09.358Z,19.40
2022-08-07T08:13:54.878Z,19.50
2022-08-07T08:16:29.971Z,19.50
2022-08-07T08:19:17.459Z,19.60
2022-08-07T08:22:10.725Z,19.90
2022-08-07T08:25:09.417Z,19.90
2022-08-07T08:27:56.522Z,20.10
2022-08-07T08:30:28.770Z,20.20
2022-08-07T08:33:01.644Z,20.20
2022-08-07T08:35:39.332Z,20.30
2022-08-07T08:38:19.980Z,20.40
2022-08-07T08:40:55.573Z,20.40
2022-08-07T08:43:42.185Z,20.50
2022-08-07T08:46:15.973Z,20.50
2022-08-07T08:48:52.195Z,20.60
2022-08-07T08:51:49.797Z,20.80
2022-08-07T08:54:39.970Z,20.80
2022-08-07T08:57:16.345Z,21.10
2022-08-07T08:59:51.832Z,21.20
2022-08-07T09:02:35.073Z,21.10
2022-08-07T09:05:18.258Z,21.20
2022-08-07T09:07:58.276Z,21.40
2022-08-07T09:10:38.685Z,21.40
2022-08-07T09:13:20.460Z,21.70
2022-08-07T09:16:24.755Z,22.00
2022-08-07T09:19:51.289Z,22.50
2022-08-07T09:24:27.465Z,23.60
2022-08-07T09:25:17.189Z,25.20
2022-08-07T09:28:01.051Z,26.30
2022-08-07T09:30:38.332Z,27.00
2022-08-07T09:33:40.713Z,27.30
2022-08-07T09:36:18.325Z,27.60
2022-08-07T09:38:55.157Z,28.60
2022-08-07T09:41:43.082Z,28.40
2022-08-07T09:44:58.376Z,27.80
2022-08-07T09:47:58.263Z,28.70
2022-08-07T09:50:36.879Z,28.20
2022-08-07T09:53:12.703Z,28.90
2022-08-07T09:56:04.907Z,28.80
2022-08-07T09:59:02.403Z,29.30
2022-08-07T10:01:55.007Z,29.10
2022-08-07T10:04:38.253Z,28.00
2022-08-07T10:07:31.707Z,27.70
2022-08-07T10:10:21.313Z,28.30
2022-08-07T10:13:54.681Z,28.30
2022-08-07T10:16:25.988Z,27.90
2022-08-07T10:19:20.304Z,27.90
2022-08-07T10:22:15.421Z,27.40
2022-08-07T10:25:22.751Z,28.10
2022-08-07T10:28:12.984Z,28.50
2022-08-07T10:30:59.221Z,28.70
2022-08-07T10:34:05.914Z,28.60
2022-08-07T10:36:55.791Z,29.40
2022-08-07T10:39:41.558Z,29.50
2022-08-07T10:42:36.335Z,29.30
2022-08-07T10:45:17.723Z,30.10
2022-08-07T10:48:03.104Z,29.20
2022-08-07T10:50:42.384Z,29.10
2022-08-07T10:53:27.482Z,29.50
2022-08-07T10:56:05.001Z,29.80
2022-08-07T10:58:47.816Z,30.00
2022-08-07T11:01:51.360Z,30.00
2022-08-07T11:04:40.320Z,30.10
2022-08-07T11:07:56.583Z,30.70
2022-08-07T11:10:18.070Z,30.00
2022-08-07T11:13:02.067Z,30.70
2022-08-07T11:15:35.892Z,31.20
2022-08-07T11:18:12.529Z,31.40
2022-08-07T11:20:49.615Z,31.20
2022-08-07T11:23:30.336Z,30.60
2022-08-07T11:26:14.658Z,31.50
2022-08-07T11:28:55.468Z,31.30
2022-08-07T11:31:33.347Z,31.40
2022-08-07T11:34:12.696Z,31.50
2022-08-07T11:36:53.142Z,32.30
2022-08-07T11:39:59.945Z,32.30
2022-08-07T11:42:42.237Z,31.80
2022-08-07T11:45:23.820Z,31.70
2022-08-07T11:48:40.560Z,32.00
2022-08-07T11:51:46.792Z,31.70
2022-08-07T11:54:29.637Z,31.50
2022-08-07T11:57:14.293Z,30.60
2022-08-07T12:00:12.225Z,30.60
2022-08-07T12:03:44.516Z,30.70
2022-08-07T12:06:37.013Z,31.70
2022-08-07T12:09:16.373Z,31.60
2022-08-07T12:12:09.306Z,31.00
2022-08-07T12:14:55.740Z,30.70
2022-08-07T12:17:39.454Z,31.20
2022-08-07T12:20:30.324Z,30.50
2022-08-07T12:23:17.870Z,30.40
2022-08-07T12:26:02.978Z,30.80
2022-08-07T12:28:54.036Z,31.10
2022-08-07T12:31:53.327Z,30.90
2022-08-07T12:34:21.162Z,31.00
2022-08-07T12:36:53.388Z,31.30
2022-08-07T12:39:42.856Z,31.20
2022-08-07T12:42:13.246Z,31.20
2022-08-07T12:44:45.156Z,30.30
2022-08-07T12:47:26.827Z,29.50
2022-08-07T12:50:38.394Z,29.70
2022-08-07T12:53:05.271Z,29.70
2022-08-07T12:56:02.638Z,30.60
2022-08-07T12:58:39.634Z,30.70
2022-08-07T13:01:18.248Z,30.60
2022-08-07T13:04:05.077Z,30.90
2022-08-07T13:07:02.175Z,30.70
2022-08-07T13:10:19.347Z,30.80
2022-08-07T13:12:52.808Z,30.90
2022-08-07T13:15:31.877Z,30.40
2022-08-07T13:18:26.525Z,29.70
2022-08-07T13:21:02.801Z,29.10
2022-08-07T13:24:00.916Z,28.50
2022-08-07T13:26:36.580Z,28.40
2022-08-07T13:29:12.900Z,28.30
2022-08-07T13:31:57.439Z,28.20
2022-08-07T13:34:36.545Z,28.10
2022-08-07T13:37:30.569Z,27.90
2022-08-07T13:40:36.430Z,27.60
2022-08-07T13:43:02.676Z,27.50
2022-08-07T13:46:12.108Z,27.60
2022-08-07T13:48:31.755Z,27.20
2022-08-07T13:51:26.888Z,27.20
2022-08-07T13:54:00.526Z,27.50
2022-08-07T13:56:34.968Z,27.60
2022-08-07T13:59:05.785Z,27.20
2022-08-07T14:01:59.179Z,26.90
2022-08-07T14:04:37.985Z,26.90
2022-08-07T14:07:21.066Z,27.10
2022-08-07T14:10:02.407Z,27.00
2022-08-07T14:12:54.844Z,27.10
2022-08-07T14:15:31.942Z,27.30
2022-08-07T14:18:24.163Z,27.30
2022-08-07T14:21:08.450Z,27.10
2022-08-07T14:24:00.566Z,27.10
2022-08-07T14:26:39.105Z,27.10
2022-08-07T14:30:05.520Z,26.80
2022-08-07T14:32:05.748Z,26.80
2022-08-07T14:34:45.806Z,27.00
2022-08-07T14:37:17.080Z,26.90
2022-08-07T14:45:46.657Z,26.90
2022-08-07T14:48:21.050Z,26.80
2022-08-07T14:50:52.014Z,26.70
2022-08-07T14:54:05.817Z,26.80
2022-08-07T14:56:13.925Z,26.80
2022-08-07T14:58:48.083Z,26.70
2022-08-07T15:01:24.844Z,26.70
2022-08-07T15:03:53.793Z,26.70
2022-08-07T15:06:26.798Z,26.70
2022-08-07T15:08:56.235Z,26.70
2022-08-07T15:11:50.790Z,26.80
2022-08-07T15:14:18.705Z,26.70
2022-08-07T15:16:55.210Z,26.60
2022-08-07T15:20:31.899Z,26.50
2022-08-07T15:22:29.283Z,26.50
2022-08-07T15:31:04.936Z,26.50
2022-08-07T15:33:36.822Z,26.30
2022-08-07T15:36:08.026Z,26.20
2022-08-07T15:38:58.587Z,26.20
2022-08-07T15:42:46.569Z,26.10
2022-08-07T15:47:16.864Z,26.30
2022-08-07T15:50:04.929Z,26.10
2022-08-07T15:52:38.002Z,25.70
2022-08-07T15:55:11.502Z,25.80
2022-08-07T15:57:48.435Z,25.90
2022-08-07T16:00:32.214Z,25.80
2022-08-07T16:03:20.609Z,25.90
2022-08-07T16:06:02.150Z,25.70
2022-08-07T16:08:38.871Z,25.60
2022-08-07T16:11:26.458Z,25.50
2022-08-07T16:14:10.381Z,25.40
2022-08-07T16:16:57.553Z,25.30
2022-08-07T16:19:58.883Z,25.20
2022-08-07T16:22:55.548Z,25.30
2022-08-07T16:25:54.341Z,25.20
2022-08-07T16:30:07.877Z,25.20
2022-08-07T16:31:49.945Z,25.30
2022-08-07T16:34:27.425Z,25.20
2022-08-07T16:38:05.695Z,25.20
2022-08-07T16:40:34.015Z,25.20
2022-08-07T16:43:13.572Z,25.20
2022-08-07T16:46:47.506Z,25.20
2022-08-07T16:50:27.789Z,25.20
2022-08-07T16:52:51.252Z,25.10
2022-08-07T16:55:47.532Z,25.10
2022-08-07T16:58:33.660Z,25.00
2022-08-07T17:01:35.075Z,24.90
2022-08-07T17:04:14.040Z,24.80
2022-08-07T17:07:03.482Z,24.70
2022-08-07T17:10:06.789Z,24.70
2022-08-07T17:12:39.833Z,24.80
2022-08-07T17:15:21.868Z,24.80
2022-08-07T17:18:18.300Z,24.80
2022-08-07T17:20:47.375Z,24.60
2022-08-07T17:23:41.248Z,24.50
2022-08-07T17:26:22.903Z,24.40
2022-08-07T17:29:19.080Z,24.40
2022-08-07T17:32:30.453Z,24.40
2022-08-07T17:35:51.268Z,24.30
2022-08-07T17:38:05.817Z,24.20
2022-08-07T17:40:50.743Z,24.20
2022-08-07T17:44:01.103Z,24.10
2022-08-07T17:46:22.689Z,23.90
2022-08-07T17:49:09.449Z,23.80
2022-08-07T17:52:00.535Z,23.70
2022-08-07T17:54:40.034Z,23.50
2022-08-07T17:57:56.122Z,23.40
2022-08-07T18:00:34.380Z,23.30
2022-08-07T18:03:19.165Z,23.20
2022-08-07T18:06:01.989Z,23.10
2022-08-07T18:08:34.995Z,22.90
2022-08-07T18:12:06.836Z,22.90
2022-08-07T18:14:05.324Z,22.80
2022-08-07T18:16:37.254Z,22.80
2022-08-07T18:21:07.603Z,22.70
2022-08-07T18:22:32.256Z,22.60
2022-08-07T18:25:19.463Z,22.50
2022-08-07T18:28:35.567Z,22.50
2022-08-07T18:31:06.167Z,22.50
2022-08-07T18:34:37.482Z,22.40
2022-08-07T18:37:09.223Z,22.30
2022-08-07T18:40:08.524Z,22.30
2022-08-07T18:42:50.259Z,22.20
2022-08-07T18:45:43.219Z,22.20
2022-08-07T18:48:38.206Z,22.10
2022-08-07T18:52:33.923Z,22.10
2022-08-07T18:54:30.574Z,22.00
2022-08-07T18:57:29.300Z,21.90
2022-08-07T19:00:32.464Z,21.80
2022-08-07T19:03:03.912Z,21.70
2022-08-07T19:06:01.979Z,21.60
2022-08-07T19:08:46.237Z,21.50
2022-08-07T19:11:36.002Z,21.50
2022-08-07T19:14:16.942Z,21.40
2022-08-07T19:17:07.645Z,21.30
2022-08-07T19:19:54.890Z,21.20
2022-08-07T19:22:31.437Z,21.10
2022-08-07T19:25:06.247Z,20.90
2022-08-07T19:28:57.515Z,20.90
2022-08-07T19:31:00.217Z,20.80
2022-08-07T19:33:34.575Z,20.70
2022-08-07T19:36:08.669Z,20.70
2022-08-07T19:38:53.380Z,20.60
2022-08-07T19:41:44.580Z,20.50
2022-08-07T19:44:21.435Z,20.40
2022-08-07T19:46:57.787Z,20.30
2022-08-07T19:49:56.767Z,20.30
2022-08-07T19:52:18.781Z,20.20
2022-08-07T19:54:56.362Z,20.20
2022-08-07T19:58:01.098Z,20.10
2022-08-07T20:00:29.229Z,20.10
2022-08-07T20:03:02.997Z,20.00
2022-08-07T20:06:01.189Z,19.90
2022-08-07T20:08:26.185Z,19.80
2022-08-07T20:11:02.191Z,19.70
2022-08-07T20:13:42.307Z,19.60
2022-08-07T20:16:31.960Z,19.60
2022-08-07T20:19:05.303Z,19.50
2022-08-07T20:21:42.197Z,19.60
2022-08-07T20:24:18.971Z,19.50
2022-08-07T20:26:52.099Z,19.60
2022-08-07T20:29:48.703Z,19.50
2022-08-07T20:32:22.950Z,19.50
2022-08-07T20:34:57.046Z,19.50
2022-08-07T20:37:34.128Z,19.40
2022-08-07T20:40:32.298Z,19.40
2022-08-07T20:42:57.831Z,19.30
2022-08-07T20:45:33.457Z,19.30
2022-08-07T20:48:30.107Z,19.30
2022-08-07T20:51:01.579Z,19.10
2022-08-07T20:54:02.858Z,19.10
2022-08-07T20:56:26.051Z,19.00
2022-08-07T20:58:58.594Z,18.90
2022-08-07T21:01:29.627Z,18.90
2022-08-07T21:04:22.931Z,18.90
2022-08-07T21:06:56.934Z,18.80
2022-08-07T21:09:52.030Z,18.80
2022-08-07T21:12:29.131Z,18.70
2022-08-07T21:15:01.048Z,18.70
2022-08-07T21:18:01.848Z,18.60
2022-08-07T21:20:29.731Z,18.60
2022-08-07T21:23:07.724Z,18.50
2022-08-07T21:26:03.206Z,18.50
2022-08-07T21:28:50.326Z,18.40
2022-08-07T21:31:49.987Z,18.40
2022-08-07T21:34:31.966Z,18.40
2022-08-07T21:37:08.135Z,18.30
2022-08-07T21:39:51.820Z,18.30
2022-08-07T21:42:42.934Z,18.20
2022-08-07T21:46:08.413Z,18.10
2022-08-07T21:48:29.329Z,18.10
2022-08-07T21:51:19.254Z,18.00
2022-08-07T21:53:53.697Z,18.00
2022-08-07T21:56:39.767Z,17.90
2022-08-07T21:59:14.771Z,18.00
2022-08-07T22:02:07.398Z,17.90
2022-08-07T22:04:54.013Z,17.90
2022-08-07T22:07:31.743Z,17.90
2022-08-07T22:10:20.432Z,17.80
2022-08-07T22:12:53.778Z,17.80
2022-08-07T22:16:41.851Z,17.70
2022-08-07T22:18:24.979Z,17.70
2022-08-07T22:21:01.474Z,17.70
2022-08-07T22:23:40.267Z,17.60
2022-08-07T22:26:19.418Z,17.60
2022-08-07T22:28:54.122Z,17.50
2022-08-07T22:31:59.346Z,17.50
2022-08-07T22:34:35.967Z,17.40
2022-08-07T22:37:14.409Z,17.40
2022-08-07T22:39:53.003Z,17.40
2022-08-07T22:42:30.536Z,17.30
2022-08-07T22:45:03.500Z,17.30
2022-08-07T22:48:31.414Z,17.30
2022-08-07T22:51:08.127Z,17.20
2022-08-07T22:54:07.424Z,17.20
2022-08-07T22:56:44.484Z,17.20
2022-08-07T22:59:49.925Z,17.10
2022-08-07T23:02:31.117Z,17.10
2022-08-07T23:06:08.625Z,17.10
2022-08-07T23:08:30.287Z,17.10
2022-08-07T23:11:13.112Z,17.00
2022-08-07T23:14:15.662Z,17.00
2022-08-07T23:17:04.081Z,16.90
2022-08-07T23:20:09.838Z,16.90
2022-08-07T23:22:52.380Z,16.90
2022-08-07T23:25:32.540Z,16.80
2022-08-07T23:28:21.381Z,16.70
2022-08-07T23:31:11.665Z,16.70
2022-08-07T23:34:36.419Z,16.70
2022-08-07T23:37:19.928Z,16.70
2022-08-07T23:40:07.932Z,16.60
2022-08-07T23:42:53.430Z,16.50
2022-08-07T23:45:33.447Z,16.50
2022-08-07T23:48:41.961Z,16.40
2022-08-07T23:53:05.446Z,16.30
2022-08-07T23:54:28.440Z,16.30
2022-08-07T23:57:14.612Z,16.30
